YM Initiative — A8HX4 — position and weather

sailwx.info

Track history (hours):
 
Tides and Currents Weather Stations Pressure Air Temp Water Temp Dewpoint Dewpoint Depression Visibility Wind Speed Wind Dir Waves Ship Positions

YM Initiative

Last reported at 2015-Apr-25 06:33 UTC. Time now 2015-Apr-28 00:29 UTC.
Position N 01°14' E 104°00'.

Length 173 m; draft 7.7 m.

Type: Cargo ship. MMSI: 635961368.

Date/timePositionNaut miles runAvg speedWind from/ knotsBaromVisibWave heightAir tempDewpointWater temp
2015-Apr-25 06:33N 01°14' E 104°00'1211.6
2015-Apr-25 05:31N 01°12' E 103°48'5 5.2
2015-Apr-25 04:33N 01°17' E 103°46'0 0.2
2015-Apr-25 03:33N 01°17' E 103°46'0 0.0
2015-Apr-25 02:33N 01°17' E 103°46'0 0.0
2015-Apr-25 01:33N 01°17' E 103°46'0 0.0
2015-Apr-25 00:27N 01°17' E 103°46'0 0.0
2015-Apr-24 23:12N 01°17' E 103°46'0 0.0
2015-Apr-24 22:33N 01°17' E 103°46'0 0.0
2015-Apr-24 21:33N 01°17' E 103°46'0 0.0
2015-Apr-24 20:33N 01°17' E 103°46'0 0.0
2015-Apr-24 19:33N 01°17' E 103°46'0 0.0
2015-Apr-24 18:27N 01°17' E 103°46'0 0.0
2015-Apr-24 17:33N 01°17' E 103°46'0 0.0
2015-Apr-24 16:33N 01°17' E 103°46'0 0.0
2015-Apr-24 15:33N 01°17' E 103°46'0 0.0
2015-Apr-24 14:33N 01°17' E 103°46'0 0.0
2015-Apr-24 13:27N 01°17' E 103°46'0 0.0
2015-Apr-24 12:33N 01°17' E 103°46'0 0.2
2015-Apr-24 11:33N 01°17' E 103°46'5 5.3
2015-Apr-24 10:33N 01°13' E 103°49'1111.0
2015-Apr-24 09:33N 01°15' E 103°59'  
2015-Apr-20 07:23N 01°15' E 104°04'1416.1
2015-Apr-20 06:31N 01°11' E 103°51'8115.7
2015-Apr-20 01:21N 01°43' E 102°36'1618.2
2015-Apr-20 00:29N 01°51' E 102°22'19 0.4
2015-Apr-18 03:06N 02°04' E 102°09'916.4
2015-Apr-18 02:33N 01°58' E 102°16'1615.6
2015-Apr-18 01:32N 01°51' E 102°30'1514.8
2015-Apr-18 00:32N 01°45' E 102°43'6515.4
2015-Apr-17 20:17N 01°13' E 103°40'710.0
2015-Apr-17 19:33N 01°17' E 103°46'0 0.4
2015-Apr-17 18:32N 01°17' E 103°46'0 0.0
2015-Apr-17 17:32N 01°17' E 103°46'0 0.0
2015-Apr-17 16:32N 01°17' E 103°46'0 0.1
2015-Apr-17 15:20N 01°17' E 103°46'0 0.0
2015-Apr-17 14:26N 01°17' E 103°46'0 0.0
2015-Apr-17 13:32N 01°17' E 103°46'0 0.0
2015-Apr-17 12:26N 01°17' E 103°46'0 0.0
2015-Apr-17 11:32N 01°17' E 103°46'0 0.0
2015-Apr-17 10:32N 01°17' E 103°46'0 0.3
2015-Apr-17 09:33N 01°17' E 103°46'7 6.8
2015-Apr-17 08:33N 01°12' E 103°51'6 5.6
2015-Apr-17 07:33N 01°14' E 103°56'6 6.3
2015-Apr-17 06:32N 01°16' E 104°02'10 8.6
2015-Apr-17 05:23N 01°17' E 104°12'  
Track history (hours):
 
Tides and Currents Weather Stations Pressure Air Temp Water Temp Dewpoint Dewpoint Depression Visibility Wind Speed Wind Dir Waves Ship Positions

YM Initiative

Last reported at 2015-Apr-25 06:33 UTC. Time now 2015-Apr-28 00:29 UTC.
Position N 01°14' E 104°00'.

Length 173 m; draft 7.7 m.

Type: Cargo ship. MMSI: 635961368.

Date/timePositionNaut miles runAvg speedWind from/ knotsBaromVisibWave heightAir tempDewpointWater temp
2015-Apr-25 06:33N 01°14' E 104°00'1211.6
2015-Apr-25 05:31N 01°12' E 103°48'5 5.2
2015-Apr-25 04:33N 01°17' E 103°46'0 0.2
2015-Apr-25 03:33N 01°17' E 103°46'0 0.0
2015-Apr-25 02:33N 01°17' E 103°46'0 0.0
2015-Apr-25 01:33N 01°17' E 103°46'0 0.0
2015-Apr-25 00:27N 01°17' E 103°46'0 0.0
2015-Apr-24 23:12N 01°17' E 103°46'0 0.0
2015-Apr-24 22:33N 01°17' E 103°46'0 0.0
2015-Apr-24 21:33N 01°17' E 103°46'0 0.0
2015-Apr-24 20:33N 01°17' E 103°46'0 0.0
2015-Apr-24 19:33N 01°17' E 103°46'0 0.0
2015-Apr-24 18:27N 01°17' E 103°46'0 0.0
2015-Apr-24 17:33N 01°17' E 103°46'0 0.0
2015-Apr-24 16:33N 01°17' E 103°46'0 0.0
2015-Apr-24 15:33N 01°17' E 103°46'0 0.0
2015-Apr-24 14:33N 01°17' E 103°46'0 0.0
2015-Apr-24 13:27N 01°17' E 103°46'0 0.0
2015-Apr-24 12:33N 01°17' E 103°46'0 0.2
2015-Apr-24 11:33N 01°17' E 103°46'5 5.3
2015-Apr-24 10:33N 01°13' E 103°49'1111.0
2015-Apr-24 09:33N 01°15' E 103°59'  
2015-Apr-20 07:23N 01°15' E 104°04'1416.1
2015-Apr-20 06:31N 01°11' E 103°51'8115.7
2015-Apr-20 01:21N 01°43' E 102°36'1618.2
2015-Apr-20 00:29N 01°51' E 102°22'19 0.4
2015-Apr-18 03:06N 02°04' E 102°09'916.4
2015-Apr-18 02:33N 01°58' E 102°16'1615.6
2015-Apr-18 01:32N 01°51' E 102°30'1514.8
2015-Apr-18 00:32N 01°45' E 102°43'6515.4
2015-Apr-17 20:17N 01°13' E 103°40'710.0
2015-Apr-17 19:33N 01°17' E 103°46'0 0.4
2015-Apr-17 18:32N 01°17' E 103°46'0 0.0
2015-Apr-17 17:32N 01°17' E 103°46'0 0.0
2015-Apr-17 16:32N 01°17' E 103°46'0 0.1
2015-Apr-17 15:20N 01°17' E 103°46'0 0.0
2015-Apr-17 14:26N 01°17' E 103°46'0 0.0
2015-Apr-17 13:32N 01°17' E 103°46'0 0.0
2015-Apr-17 12:26N 01°17' E 103°46'0 0.0
2015-Apr-17 11:32N 01°17' E 103°46'0 0.0
2015-Apr-17 10:32N 01°17' E 103°46'0 0.3
2015-Apr-17 09:33N 01°17' E 103°46'7 6.8
2015-Apr-17 08:33N 01°12' E 103°51'6 5.6
2015-Apr-17 07:33N 01°14' E 103°56'6 6.3
2015-Apr-17 06:32N 01°16' E 104°02'10 8.6
2015-Apr-17 05:23N 01°17' E 104°12'  

Dump ship's entire track history